Decoded Metar for YPKG (KALGOORLIE in AUSTRALIA) (IATA:KGI) | Meteo·Mobile Aviation Weather
aviador You're here:

YPKG Decoded Metar

KALGOORLIE in AUSTRALIA
Report Time2018-10-17 21:00:00
UTC Time2018-10-17 21:33:38
Flight Rules vfr VFR
Wind330° at 06 kt
W.Decomp.*RWY 36: 5.1 kt HW 3.1 kt LCW
RWY 29: 4.7 kt HW 3.8 kt RCW
W.Rank330° ranks 25
Current wind is below 330° avg. (7.9)
Visibility9999 m
Phenomena:N/A
Clouds:N/A
Expected CloudBase > 7,600 ft AGL from Temp-Dew spread
CeilingNone
Temp19°C (ISA +6)
Dew Point00°C (28% RH)
AAT14.9°C
QNH1005 hPa
Density Alt2,280 ft
Elevation1,181 ft
Report Wrong Elevation
Raw Report
YPKG 172100Z AUTO 33006KT 9999 // NCD 19/00 Q1005=

Extra information for YPKG:More info

Metar Taf Metar & Taf Last 4 Metars F.Rules Stats Wind Profile Meteogram Temp Stats Airport Information Weather charts Add Link Nearby VenuesMetar ALERT Operation Metar Decoded Social comments